Time;durP1;ratioP1;P1;durP2;ratioP2;P2;SDS_P1;SDS_P2;PMS_P1;PMS_P2;Temp;Humidity;BMP_temperature;BMP_pressure;BME280_temperature;BME280_humidity;BME280_pressure;Samples;Min_cycle;Max_cycle;Signal;HPM_P1;HPM_P2
2022/11/11 00:00:34;;;;;;;16.73;15.40;;;11.80;38.60;;;;;;4981274;28;20551;-58
2022/11/11 00:03:01;;;;;;;13.70;12.90;;;11.90;38.50;;;;;;4980290;28;20417;-58
2022/11/11 00:05:27;;;;;;;16.27;15.17;;;11.90;38.10;;;;;;4980803;28;20822;-58
2022/11/11 00:07:58;;;;;;;14.17;13.27;;;11.90;37.70;;;;;;4982225;28;20417;-59
2022/11/11 00:10:24;;;;;;;15.10;14.20;;;11.90;37.90;;;;;;4980928;28;20421;-59
2022/11/11 00:12:50;;;;;;;14.73;13.70;;;12.00;37.80;;;;;;4981230;28;20483;-58
2022/11/11 00:15:16;;;;;;;14.50;13.60;;;11.90;37.70;;;;;;4982381;28;20409;-58
2022/11/11 00:26:05;;;;;;;14.10;13.20;;;11.90;37.70;;;;;;4983490;28;20497;-59
2022/11/11 00:28:31;;;;;;;13.63;12.73;;;11.90;37.40;;;;;;4980023;28;20417;-59
2022/11/11 00:31:05;;;;;;;14.87;13.87;;;11.90;37.20;;;;;;4981585;28;20475;-59
2022/11/11 00:33:31;;;;;;;13.70;12.80;;;11.90;37.40;;;;;;4981151;28;20186;-59
2022/11/11 00:35:56;;;;;;;15.40;14.33;;;12.00;37.10;;;;;;4981198;28;20844;-59
2022/11/11 00:41:07;;;;;;;14.37;13.37;;;12.00;36.80;;;;;;4983330;28;20268;-59
2022/11/11 00:43:32;;;;;;;14.73;13.57;;;12.00;36.80;;;;;;4981271;28;20980;-59
2022/11/11 00:51:28;;;;;;;14.30;13.37;;;11.90;36.80;;;;;;4980028;28;20463;-60
2022/11/11 00:53:54;;;;;;;15.13;14.03;;;11.90;36.90;;;;;;4981062;28;20424;-58
2022/11/11 00:56:20;;;;;;;13.73;13.03;;;11.90;36.70;;;;;;4979740;28;20819;-59
2022/11/11 00:58:46;;;;;;;12.80;12.10;;;11.80;36.30;;;;;;4979316;28;20968;-58
2022/11/11 01:01:11;;;;;;;14.17;12.77;;;11.80;36.80;;;;;;4981664;28;20440;-58
2022/11/11 01:03:37;;;;;;;13.80;12.80;;;11.80;36.80;;;;;;4981187;28;20185;-58
2022/11/11 01:06:03;;;;;;;13.93;13.13;;;11.80;36.80;;;;;;4981104;28;20182;-58
2022/11/11 01:08:31;;;;;;;13.67;12.93;;;11.80;36.80;;;;;;4981343;28;20230;-58
2022/11/11 01:10:56;;;;;;;13.20;12.37;;;11.80;36.20;;;;;;4982965;28;20417;-58
2022/11/11 01:13:23;;;;;;;13.37;12.37;;;11.80;36.40;;;;;;4976668;28;20476;-58
2022/11/11 01:15:52;;;;;;;13.70;12.60;;;11.70;36.30;;;;;;4963084;28;20206;-58
2022/11/11 01:18:23;;;;;;;13.63;12.83;;;11.70;36.80;;;;;;4961924;28;20513;-58
2022/11/11 01:21:12;;;;;;;14.03;13.20;;;11.70;36.70;;;;;;4962209;28;20418;-58
2022/11/11 01:23:39;;;;;;;13.53;12.43;;;11.70;36.60;;;;;;4959419;28;20414;-59
2022/11/11 01:26:08;;;;;;;13.50;12.80;;;11.70;36.50;;;;;;4959715;28;20949;-58
2022/11/11 01:28:33;;;;;;;13.83;12.67;;;11.60;36.80;;;;;;4960332;28;20422;-58
2022/11/11 01:31:04;;;;;;;13.90;12.90;;;11.70;36.70;;;;;;4959830;28;20421;-58
2022/11/11 01:33:30;;;;;;;14.73;13.63;;;11.70;36.40;;;;;;4960065;28;21168;-58
2022/11/11 01:36:05;;;;;;;13.97;13.07;;;11.60;37.00;;;;;;4960732;28;20425;-58
2022/11/11 01:38:31;;;;;;;13.80;12.90;;;11.60;36.60;;;;;;4961566;28;20423;-58
2022/11/11 01:40:57;;;;;;;15.00;13.80;;;11.60;36.70;;;;;;4961870;28;20413;-59
2022/11/11 01:43:23;;;;;;;14.07;13.10;;;11.60;36.80;;;;;;4963264;28;20195;-59
2022/11/11 01:46:02;;;;;;;13.33;12.43;;;11.60;36.40;;;;;;4963663;28;21218;-59
2022/11/11 01:51:37;;;;;;;13.57;12.77;;;11.60;36.70;;;;;;4966053;28;20414;-58
2022/11/11 01:54:37;;;;;;;14.17;13.13;;;11.60;36.40;;;;;;4964480;28;20429;-57
2022/11/11 01:57:14;;;;;;;12.60;12.00;;;11.50;36.80;;;;;;4952387;28;20425;-59
2022/11/11 01:59:43;;;;;;;13.87;12.80;;;11.30;38.20;;;;;;4963364;28;20425;-58
2022/11/11 02:02:26;;;;;;;13.83;12.97;;;11.30;37.90;;;;;;4963208;28;20430;-58
2022/11/11 02:07:38;;;;;;;13.90;13.03;;;11.20;37.60;;;;;;4966555;28;20417;-58
2022/11/11 02:10:07;;;;;;;12.40;11.80;;;10.90;39.50;;;;;;4962913;28;20417;-58
2022/11/11 02:15:17;;;;;;;15.33;14.33;;;11.10;38.60;;;;;;4964823;28;20920;-58
2022/11/11 02:17:45;;;;;;;13.43;12.53;;;11.20;38.10;;;;;;4967810;28;20422;-58
2022/11/11 02:20:14;;;;;;;13.70;13.00;;;11.20;37.70;;;;;;4964913;28;20182;-58
2022/11/11 02:22:43;;;;;;;13.00;12.20;;;11.20;37.50;;;;;;4962501;28;20513;-58
2022/11/11 02:25:12;;;;;;;13.93;13.23;;;11.30;37.20;;;;;;4962004;28;20452;-58
2022/11/11 02:27:41;;;;;;;13.37;12.67;;;11.30;37.10;;;;;;4960969;28;20461;-58
2022/11/11 02:30:14;;;;;;;14.03;13.13;;;11.30;36.80;;;;;;4960982;28;20429;-58
2022/11/11 02:32:41;;;;;;;12.90;12.20;;;11.30;37.00;;;;;;4963004;28;21061;-58
2022/11/11 02:35:17;;;;;;;12.80;11.90;;;11.40;36.80;;;;;;4962690;28;20424;-58
2022/11/11 02:37:47;;;;;;;14.23;12.93;;;11.40;36.40;;;;;;4965143;28;20522;-58
2022/11/11 02:40:17;;;;;;;12.60;11.80;;;11.50;36.10;;;;;;4961271;28;20473;-58
2022/11/11 02:42:43;;;;;;;13.17;12.47;;;11.50;35.90;;;;;;4961638;28;20548;-58
2022/11/11 02:45:09;;;;;;;12.77;12.07;;;11.50;35.90;;;;;;4961790;28;20509;-58
2022/11/11 02:47:35;;;;;;;13.50;12.60;;;11.50;35.80;;;;;;4960209;28;20551;-58
2022/11/11 02:50:01;;;;;;;13.63;12.93;;;11.50;35.70;;;;;;4962435;28;20422;-57
2022/11/11 02:52:27;;;;;;;13.87;12.97;;;11.60;35.70;;;;;;4959726;28;20648;-58
2022/11/11 02:54:52;;;;;;;13.40;12.57;;;11.50;35.70;;;;;;4965800;28;20418;-58
2022/11/11 02:57:18;;;;;;;13.00;12.20;;;11.50;35.50;;;;;;4968640;28;20189;-58
2022/11/11 02:59:44;;;;;;;13.70;12.90;;;11.40;36.00;;;;;;4960249;28;20245;-58
2022/11/11 03:02:09;;;;;;;12.70;12.00;;;11.40;35.90;;;;;;4962492;28;20186;-59
2022/11/11 03:04:36;;;;;;;11.83;11.23;;;11.40;35.80;;;;;;4960608;28;20662;-57
2022/11/11 03:07:02;;;;;;;12.97;12.17;;;11.40;35.80;;;;;;4960751;28;20218;-58
2022/11/11 03:09:27;;;;;;;12.00;11.10;;;11.40;35.60;;;;;;4959496;28;20492;-57
2022/11/11 03:11:53;;;;;;;12.53;11.83;;;11.40;35.10;;;;;;4960472;28;20209;-57
2022/11/11 03:14:18;;;;;;;12.13;11.33;;;11.40;35.20;;;;;;4961721;28;20179;-57
2022/11/11 03:19:28;;;;;;;12.70;12.03;;;11.40;35.20;;;;;;4962076;28;20182;-58
2022/11/11 03:21:54;;;;;;;11.83;11.33;;;11.40;35.30;;;;;;4960034;28;20426;-58
2022/11/11 03:24:20;;;;;;;13.20;12.40;;;11.40;35.30;;;;;;4960467;28;20560;-58
2022/11/11 03:26:46;;;;;;;13.83;13.10;;;11.40;35.30;;;;;;4962713;28;20839;-58
2022/11/11 03:29:12;;;;;;;13.23;12.40;;;11.30;35.10;;;;;;4962913;28;20422;-59
2022/11/11 03:31:38;;;;;;;13.67;12.77;;;11.30;35.30;;;;;;4965739;28;20841;-58
2022/11/11 03:34:19;;;;;;;13.67;12.77;;;11.10;35.40;;;;;;4961105;28;20551;-59
2022/11/11 03:39:29;;;;;;;14.73;13.83;;;10.70;37.20;;;;;;4961818;28;20417;-57
2022/11/11 03:41:56;;;;;;;15.17;14.17;;;10.40;38.50;;;;;;4961308;28;20418;-58
2022/11/11 03:44:22;;;;;;;15.17;14.17;;;10.40;38.40;;;;;;4962175;28;20962;-58
2022/11/11 03:46:47;;;;;;;13.97;13.27;;;10.30;39.30;;;;;;4960505;28;20425;-58
2022/11/11 03:49:13;;;;;;;16.03;15.13;;;10.30;39.20;;;;;;4960031;28;20186;-59
2022/11/11 03:51:38;;;;;;;14.83;14.03;;;10.20;39.30;;;;;;4959904;28;20210;-58
2022/11/11 03:54:04;;;;;;;14.90;13.90;;;10.00;40.00;;;;;;4961754;28;20559;-58
2022/11/11 03:56:30;;;;;;;15.37;14.20;;;10.10;40.90;;;;;;4961409;28;20181;-59
2022/11/11 03:58:55;;;;;;;14.50;13.50;;;10.30;40.20;;;;;;4961911;28;20190;-58
2022/11/11 04:12:19;;;;;;;14.57;13.30;;;10.20;38.70;;;;;;4966427;28;20516;-59
2022/11/11 04:17:29;;;;;;;14.93;14.17;;;10.30;39.60;;;;;;4965116;28;20905;-58
2022/11/11 04:22:41;;;;;;;16.30;15.30;;;10.80;37.90;;;;;;4964901;28;20189;-58
2022/11/11 04:29:27;;;;;;;14.67;13.60;;;10.90;37.30;;;;;;4970094;28;20428;-58
2022/11/11 04:30:36;;;;;;;15.50;14.60;;;10.60;38.20;;;;;;4966457;28;20524;-58
2022/11/11 04:33:02;;;;;;;16.33;15.37;;;10.60;38.40;;;;;;4967281;28;20601;-59
2022/11/11 04:35:28;;;;;;;15.03;14.03;;;10.80;37.20;;;;;;4966405;28;20202;-58
2022/11/11 04:41:02;;;;;;;14.40;13.60;;;10.90;36.70;;;;;;4967973;28;20189;-58
2022/11/11 04:43:23;;;;;;;13.90;13.20;;;11.20;35.40;;;;;;4968921;28;20445;-58
2022/11/11 04:45:48;;;;;;;13.57;12.80;;;11.30;34.80;;;;;;4967878;28;20418;-58
2022/11/11 04:48:17;;;;;;;13.80;13.10;;;11.40;34.20;;;;;;4967522;28;20186;-58
2022/11/11 04:50:43;;;;;;;14.40;13.60;;;11.40;34.20;;;;;;4966412;28;20196;-58
2022/11/11 04:53:11;;;;;;;13.10;12.50;;;11.40;34.00;;;;;;4968983;28;20808;-58
2022/11/11 04:58:25;;;;;;;15.60;14.70;;;11.40;34.40;;;;;;4971674;28;20460;-58
2022/11/11 05:00:50;;;;;;;14.83;13.93;;;11.30;34.20;;;;;;4970256;28;20418;-58
2022/11/11 05:03:19;;;;;;;15.37;14.57;;;11.30;34.00;;;;;;4970601;28;20910;-57
2022/11/11 05:11:14;;;;;;;17.60;16.57;;;10.70;35.40;;;;;;4971211;28;20412;-59
2022/11/11 05:22:07;;;;;;;17.03;16.13;;;10.10;37.00;;;;;;4970888;28;20770;-60
2022/11/11 05:27:17;;;;;;;16.17;15.10;;;10.30;35.50;;;;;;4976388;28;20552;-59
2022/11/11 05:29:43;;;;;;;17.30;16.40;;;10.20;36.00;;;;;;4974492;28;20508;-59
2022/11/11 05:32:08;;;;;;;16.57;15.37;;;10.30;36.00;;;;;;4975069;28;20210;-59
2022/11/11 05:34:34;;;;;;;16.67;15.37;;;10.30;35.90;;;;;;4975276;28;20270;-58
2022/11/11 05:37:00;;;;;;;16.27;15.27;;;10.40;35.70;;;;;;4974519;28;20191;-58
2022/11/11 05:39:25;;;;;;;15.90;15.00;;;10.40;36.30;;;;;;4973168;28;20190;-58
2022/11/11 05:41:51;;;;;;;15.73;14.83;;;10.40;36.30;;;;;;4973054;28;20186;-58
2022/11/11 05:44:16;;;;;;;16.63;15.67;;;10.40;36.40;;;;;;4955094;28;20206;-59
2022/11/11 05:46:42;;;;;;;17.17;16.00;;;10.30;36.20;;;;;;4974176;28;20192;-58
2022/11/11 05:49:16;;;;;;;16.13;15.23;;;10.20;36.40;;;;;;4974412;28;20655;-58
2022/11/11 05:51:46;;;;;;;16.33;15.40;;;10.00;37.80;;;;;;4958586;28;20244;-58
2022/11/11 05:54:13;;;;;;;16.60;15.80;;;10.00;38.30;;;;;;4973132;28;20938;-58
2022/11/11 05:56:38;;;;;;;17.00;15.93;;;10.20;37.80;;;;;;4974886;28;20454;-59
2022/11/11 05:59:05;;;;;;;15.73;14.93;;;10.20;38.00;;;;;;4974460;28;20446;-58
2022/11/11 06:01:31;;;;;;;16.80;15.90;;;10.40;37.60;;;;;;4974151;28;20233;-59
2022/11/11 06:03:57;;;;;;;17.47;16.37;;;10.50;36.80;;;;;;4973104;28;20942;-59
2022/11/11 06:06:22;;;;;;;16.30;15.40;;;10.70;36.20;;;;;;4975968;28;20409;-59
2022/11/11 06:08:48;;;;;;;17.40;16.40;;;10.70;35.50;;;;;;4974625;28;20190;-59
2022/11/11 06:11:14;;;;;;;17.23;16.33;;;10.80;35.40;;;;;;4973900;28;20804;-59
2022/11/11 06:13:40;;;;;;;16.17;15.13;;;10.90;35.30;;;;;;4973808;28;20245;-60
2022/11/11 06:16:06;;;;;;;16.57;15.77;;;10.90;35.10;;;;;;4974551;28;20179;-59
2022/11/11 06:18:32;;;;;;;17.30;16.40;;;10.90;35.10;;;;;;4974370;28;20421;-59
2022/11/11 06:20:59;;;;;;;16.70;15.67;;;10.90;35.00;;;;;;4974048;28;20525;-59
2022/11/11 06:23:26;;;;;;;17.53;16.43;;;10.90;34.90;;;;;;4973700;28;20436;-59
2022/11/11 06:28:41;;;;;;;16.57;15.57;;;11.00;34.70;;;;;;4975874;28;20445;-59
2022/11/11 06:31:09;;;;;;;17.43;16.50;;;10.90;34.60;;;;;;4981034;28;20433;-59
2022/11/11 06:33:36;;;;;;;17.33;16.40;;;10.90;34.50;;;;;;4992833;28;20457;-61
2022/11/11 06:36:02;;;;;;;17.67;16.53;;;11.00;34.70;;;;;;4993081;28;20405;-59
2022/11/11 06:38:28;;;;;;;17.50;16.40;;;11.00;34.60;;;;;;4993622;28;20419;-59
2022/11/11 06:40:54;;;;;;;16.57;15.57;;;11.00;34.50;;;;;;4992847;28;20409;-60
2022/11/11 06:43:19;;;;;;;18.50;17.30;;;10.90;34.90;;;;;;4984212;28;20249;-60
2022/11/11 06:45:48;;;;;;;16.80;15.90;;;11.00;36.20;;;;;;4976153;28;20221;-59
2022/11/11 06:48:14;;;;;;;15.63;14.87;;;10.90;35.80;;;;;;4992336;28;20188;-59
2022/11/11 06:50:40;;;;;;;15.93;15.03;;;11.00;34.90;;;;;;4992302;28;20492;-59
2022/11/11 06:53:11;;;;;;;16.77;15.73;;;11.00;34.70;;;;;;4992833;28;20202;-59
2022/11/11 06:55:37;;;;;;;16.23;15.40;;;10.90;34.90;;;;;;4991422;28;20185;-59
2022/11/11 06:58:11;;;;;;;16.30;15.50;;;10.70;34.50;;;;;;4988367;28;20418;-59
2022/11/11 07:00:38;;;;;;;15.97;15.17;;;10.40;35.90;;;;;;4972185;28;20414;-59
2022/11/11 07:03:04;;;;;;;15.90;15.00;;;10.40;35.90;;;;;;4973495;28;20418;-58
2022/11/11 07:05:31;;;;;;;16.63;15.47;;;10.60;35.50;;;;;;4973936;28;20770;-58
2022/11/11 07:08:01;;;;;;;16.87;15.97;;;10.60;35.10;;;;;;4971782;28;20481;-58
2022/11/11 07:10:27;;;;;;;16.00;15.00;;;10.60;35.30;;;;;;4972070;28;20954;-58
2022/11/11 07:12:53;;;;;;;16.70;15.53;;;10.70;35.40;;;;;;4973410;28;20462;-59
2022/11/11 07:15:18;;;;;;;17.37;16.37;;;10.70;34.80;;;;;;4973108;28;20659;-58
2022/11/11 07:17:44;;;;;;;17.47;16.30;;;10.80;34.50;;;;;;4990502;28;20185;-59
2022/11/11 07:20:10;;;;;;;16.70;15.60;;;10.90;34.20;;;;;;4990275;28;20252;-61
2022/11/11 07:22:36;;;;;;;17.87;16.40;;;10.80;33.60;;;;;;4990076;28;20182;-61
2022/11/11 07:25:02;;;;;;;14.73;14.03;;;10.60;33.80;;;;;;4991957;28;20421;-59
2022/11/11 07:27:28;;;;;;;15.97;15.20;;;10.60;35.10;;;;;;4992206;28;20182;-60
2022/11/11 07:29:54;;;;;;;16.50;15.40;;;10.70;35.60;;;;;;4989994;28;20421;-60
2022/11/11 07:32:19;;;;;;;16.50;15.43;;;10.80;34.50;;;;;;4989956;28;20210;-59
2022/11/11 07:34:45;;;;;;;16.43;15.40;;;10.80;34.20;;;;;;4991922;28;20170;-58
2022/11/11 07:37:10;;;;;;;16.57;15.47;;;10.90;34.10;;;;;;4991063;28;20385;-59
2022/11/11 07:39:36;;;;;;;15.40;14.50;;;10.90;33.80;;;;;;4991965;28;20174;-59
2022/11/11 07:42:02;;;;;;;15.37;14.67;;;11.00;33.80;;;;;;4991530;28;20218;-60
2022/11/11 07:44:27;;;;;;;17.77;16.60;;;11.00;33.90;;;;;;4991868;28;20196;-59
2022/11/11 07:46:53;;;;;;;17.93;16.40;;;11.10;34.00;;;;;;4983401;28;20563;-60
2022/11/11 07:49:19;;;;;;;15.70;14.90;;;11.10;33.70;;;;;;4970867;28;20193;-61
2022/11/11 07:51:44;;;;;;;15.90;14.97;;;11.00;34.00;;;;;;4970813;28;20671;-59
2022/11/11 07:54:10;;;;;;;17.57;16.33;;;11.00;34.10;;;;;;4970145;28;20179;-58
2022/11/11 07:56:36;;;;;;;16.47;15.23;;;11.00;34.20;;;;;;4971097;28;20233;-59
2022/11/11 07:59:01;;;;;;;17.47;15.67;;;10.70;35.30;;;;;;4971754;28;20270;-60
2022/11/11 08:01:27;;;;;;;41.07;22.43;;;10.60;35.70;;;;;;4970817;28;20182;-59
2022/11/11 08:03:53;;;;;;;33.47;17.60;;;10.30;36.80;;;;;;4976793;28;20230;-59
2022/11/11 08:06:20;;;;;;;21.80;19.60;;;10.30;36.70;;;;;;4975309;28;20187;-60
2022/11/11 08:08:46;;;;;;;22.53;17.60;;;10.20;37.60;;;;;;4971809;28;20198;-59
2022/11/11 08:11:13;;;;;;;17.67;16.37;;;10.30;37.40;;;;;;4970464;28;20943;-59
2022/11/11 08:13:39;;;;;;;14.87;14.00;;;10.30;37.50;;;;;;4971696;28;20855;-58
2022/11/11 08:16:14;;;;;;;15.30;14.37;;;10.20;38.20;;;;;;4971970;28;20422;-59
2022/11/11 08:18:41;;;;;;;15.30;14.60;;;9.90;40.40;;;;;;4963977;28;20942;-59
2022/11/11 08:21:07;;;;;;;15.57;14.60;;;9.70;41.40;;;;;;4971351;28;20505;-59
2022/11/11 08:23:33;;;;;;;15.20;14.30;;;9.60;42.20;;;;;;4971786;28;20422;-59
2022/11/11 08:26:04;;;;;;;16.57;15.57;;;9.60;42.20;;;;;;4971487;28;20429;-59
2022/11/11 08:28:31;;;;;;;14.37;13.57;;;9.60;42.20;;;;;;4976796;28;20557;-59
2022/11/11 08:30:58;;;;;;;14.50;13.60;;;9.50;42.20;;;;;;4990522;28;20425;-53
2022/11/11 08:33:25;;;;;;;15.13;14.17;;;9.60;43.00;;;;;;4991316;28;20758;-52
2022/11/11 08:35:53;;;;;;;14.37;13.50;;;9.60;42.70;;;;;;4990859;28;20460;-53
2022/11/11 08:38:19;;;;;;;12.90;12.37;;;9.60;42.70;;;;;;4991247;28;20421;-52
2022/11/11 08:40:45;;;;;;;14.00;13.27;;;9.40;43.40;;;;;;4990512;28;20413;-53
2022/11/11 08:43:10;;;;;;;13.77;13.07;;;9.40;43.90;;;;;;4991431;28;20444;-54
2022/11/11 08:45:36;;;;;;;14.00;13.20;;;9.60;43.20;;;;;;4990861;28;20653;-54
2022/11/11 08:48:02;;;;;;;13.93;13.33;;;9.70;42.70;;;;;;4991372;28;20639;-51
2022/11/11 08:50:28;;;;;;;14.13;13.33;;;9.70;42.30;;;;;;4992310;28;20421;-50
2022/11/11 08:52:53;;;;;;;16.17;14.73;;;9.70;42.40;;;;;;4955969;28;20540;-53
2022/11/11 08:55:19;;;;;;;15.60;14.70;;;9.80;42.40;;;;;;4969156;28;20273;-53
2022/11/11 08:57:46;;;;;;;14.10;13.30;;;9.80;42.40;;;;;;4995269;28;20228;-51
2022/11/11 09:00:12;;;;;;;15.00;14.07;;;9.80;42.40;;;;;;4983858;28;20187;-51
2022/11/11 09:02:38;;;;;;;14.20;13.40;;;10.00;42.30;;;;;;4968339;28;20469;-50
2022/11/11 09:05:05;;;;;;;14.00;13.13;;;10.00;41.60;;;;;;4969116;28;20467;-53
2022/11/11 09:07:31;;;;;;;15.57;14.37;;;10.00;41.60;;;;;;4956263;28;20194;-53
2022/11/11 09:09:57;;;;;;;14.27;13.37;;;10.10;42.00;;;;;;4955205;29;20798;-59
2022/11/11 09:12:23;;;;;;;13.50;12.63;;;10.20;40.80;;;;;;4956912;29;20973;-59
2022/11/11 09:14:48;;;;;;;16.00;15.00;;;10.40;40.80;;;;;;4955802;29;20186;-59
2022/11/11 09:17:15;;;;;;;15.50;14.60;;;10.50;39.40;;;;;;4965214;28;20182;-59
2022/11/11 09:19:41;;;;;;;15.67;14.77;;;10.50;38.90;;;;;;4976290;28;20410;-59
2022/11/11 09:22:06;;;;;;;17.17;15.97;;;10.60;38.70;;;;;;4974559;28;20422;-59
2022/11/11 09:24:32;;;;;;;16.10;15.07;;;10.60;38.50;;;;;;4975031;28;20639;-59
2022/11/11 09:26:58;;;;;;;16.03;15.13;;;10.50;38.30;;;;;;4975144;28;20658;-59
2022/11/11 09:29:23;;;;;;;16.77;15.57;;;10.50;38.60;;;;;;4975148;28;20210;-59
2022/11/11 09:31:49;;;;;;;16.40;15.20;;;10.60;38.30;;;;;;4973914;28;20210;-59
2022/11/11 09:34:14;;;;;;;15.63;14.60;;;10.60;38.30;;;;;;4975008;28;20174;-53
2022/11/11 09:36:41;;;;;;;16.07;15.03;;;10.80;38.00;;;;;;4974625;28;20550;-55
2022/11/11 09:39:06;;;;;;;16.20;15.10;;;11.00;37.90;;;;;;4974904;28;20542;-52
2022/11/11 09:41:53;;;;;;;17.43;16.43;;;11.20;36.90;;;;;;4974149;28;20427;-53
2022/11/11 09:44:37;;;;;;;17.03;15.80;;;11.40;36.70;;;;;;4954561;29;20533;-55
2022/11/11 09:47:28;;;;;;;17.40;16.30;;;11.40;35.20;;;;;;4980963;28;20424;-53
2022/11/11 09:50:08;;;;;;;16.87;15.73;;;11.20;35.90;;;;;;4991806;28;20435;-52
2022/11/11 09:52:52;;;;;;;17.37;16.37;;;11.30;37.50;;;;;;4971411;28;20473;-52
2022/11/11 09:55:23;;;;;;;15.77;14.77;;;11.40;36.40;;;;;;4982044;28;20453;-54
2022/11/11 09:58:00;;;;;;;16.43;15.10;;;11.40;35.30;;;;;;4992303;28;20421;-52
2022/11/11 10:00:35;;;;;;;16.50;15.70;;;11.40;36.00;;;;;;4991694;28;20815;-53
2022/11/11 10:03:09;;;;;;;16.73;15.77;;;11.40;36.80;;;;;;4992529;28;20426;-57
2022/11/11 10:05:49;;;;;;;15.97;14.90;;;11.40;36.00;;;;;;4973631;28;20436;-57
2022/11/11 10:08:25;;;;;;;15.87;14.57;;;11.50;37.00;;;;;;4973058;28;20584;-57
2022/11/11 10:10:53;;;;;;;15.43;14.23;;;11.60;36.50;;;;;;4972458;28;20476;-57
2022/11/11 10:13:30;;;;;;;14.50;13.70;;;11.70;35.60;;;;;;4972758;28;20480;-57
2022/11/11 10:16:00;;;;;;;15.90;14.70;;;11.80;35.50;;;;;;4972940;28;20784;-56
2022/11/11 10:18:36;;;;;;;16.63;15.60;;;11.80;35.70;;;;;;4972842;28;20418;-57
2022/11/11 10:21:09;;;;;;;15.10;14.00;;;11.60;35.80;;;;;;4972426;28;20426;-57
2022/11/11 10:23:36;;;;;;;17.10;15.90;;;11.70;36.00;;;;;;4986625;28;20428;-58
2022/11/11 10:26:10;;;;;;;16.37;15.33;;;11.70;36.50;;;;;;4992113;28;20421;-57
2022/11/11 10:28:36;;;;;;;15.77;14.77;;;11.80;36.00;;;;;;4986529;28;20426;-58
2022/11/11 10:31:09;;;;;;;15.50;14.70;;;11.80;35.70;;;;;;4972014;28;20521;-57
2022/11/11 10:33:50;;;;;;;15.23;14.13;;;11.80;36.00;;;;;;4975424;28;20938;-58
2022/11/11 10:36:18;;;;;;;17.20;16.20;;;11.90;36.00;;;;;;4972788;28;20425;-58
2022/11/11 10:38:49;;;;;;;15.43;14.53;;;11.90;35.40;;;;;;4972573;28;20421;-58
2022/11/11 10:41:37;;;;;;;15.60;14.40;;;12.00;35.70;;;;;;4973041;28;20821;-59
2022/11/11 10:44:22;;;;;;;16.05;14.88;;;12.00;35.90;;;;;;4938467;28;1097008;-59
2022/11/11 10:47:02;;;;;;;15.23;14.43;;;12.00;36.40;;;;;;4973374;28;20281;-58
2022/11/11 10:49:33;;;;;;;14.80;13.90;;;12.10;35.90;;;;;;4973435;28;20485;-57
2022/11/11 10:52:11;;;;;;;15.97;14.83;;;12.10;35.80;;;;;;4974246;28;20493;-57
2022/11/11 10:54:53;;;;;;;15.97;14.77;;;12.10;36.00;;;;;;4992635;28;20428;-58
2022/11/11 10:57:29;;;;;;;15.40;14.30;;;12.20;36.60;;;;;;4992726;28;20419;-58
2022/11/11 11:00:01;;;;;;;16.13;15.03;;;12.30;36.40;;;;;;4991851;28;20420;-58
2022/11/11 11:02:49;;;;;;;15.47;14.63;;;12.40;35.70;;;;;;4978195;28;20413;-57
2022/11/11 11:05:33;;;;;;;14.70;13.60;;;12.50;35.80;;;;;;4984349;28;20425;-57
2022/11/11 11:08:09;;;;;;;15.70;14.70;;;12.40;35.20;;;;;;4992262;28;20887;-57
2022/11/11 11:10:42;;;;;;;15.93;15.00;;;12.50;35.50;;;;;;4991778;28;20416;-57
2022/11/11 11:13:21;;;;;;;17.03;15.60;;;12.40;35.40;;;;;;4991586;28;20457;-57
2022/11/11 11:15:54;;;;;;;16.17;15.27;;;12.40;35.90;;;;;;4981707;28;20557;-58
2022/11/11 11:18:20;;;;;;;17.77;16.67;;;12.50;35.20;;;;;;4972904;28;20564;-58
2022/11/11 11:21:06;;;;;;;17.03;15.83;;;12.60;35.90;;;;;;4968480;28;20498;-58
2022/11/11 11:23:41;;;;;;;18.60;17.20;;;12.60;35.20;;;;;;4978130;28;20224;-57
2022/11/11 11:26:08;;;;;;;19.50;18.17;;;12.60;35.60;;;;;;4992152;28;20466;-58
2022/11/11 11:28:34;;;;;;;18.60;17.27;;;12.70;35.40;;;;;;4982324;28;20429;-57
2022/11/11 11:31:05;;;;;;;17.03;16.13;;;12.80;36.00;;;;;;4972284;28;20429;-58
2022/11/11 11:33:53;;;;;;;16.90;15.80;;;12.90;35.80;;;;;;4972473;28;20457;-58
2022/11/11 11:36:19;;;;;;;18.13;16.87;;;12.90;35.70;;;;;;4972539;28;20488;-58
2022/11/11 11:38:49;;;;;;;19.23;17.33;;;12.90;34.50;;;;;;4972312;28;20410;-58
2022/11/11 11:41:17;;;;;;;18.13;16.93;;;13.00;35.20;;;;;;4972090;28;20414;-58
2022/11/11 11:43:44;;;;;;;18.23;16.80;;;13.10;35.00;;;;;;4971861;28;20458;-58
2022/11/11 11:46:25;;;;;;;18.07;16.67;;;13.10;34.60;;;;;;4972241;28;20422;-58
2022/11/11 11:49:05;;;;;;;15.60;14.40;;;13.20;34.50;;;;;;4972195;28;20418;-58
2022/11/11 11:52:07;;;;;;;15.33;14.43;;;13.10;35.40;;;;;;4971431;28;20957;-58
2022/11/11 11:55:08;;;;;;;16.13;15.13;;;13.10;35.50;;;;;;4938731;28;20936;-58
2022/11/11 11:57:40;;;;;;;13.80;12.90;;;13.10;35.00;;;;;;4897716;29;20500;-58
2022/11/11 12:00:13;;;;;;;14.50;13.30;;;13.20;35.20;;;;;;4974535;28;20421;-58
2022/11/11 12:03:11;;;;;;;13.17;12.47;;;13.30;35.10;;;;;;4991125;28;20429;-58
2022/11/11 12:06:14;;;;;;;16.13;15.07;;;13.30;35.40;;;;;;4991270;28;20436;-57
2022/11/11 12:08:49;;;;;;;14.80;13.67;;;13.20;35.10;;;;;;4987378;28;20928;-57
2022/11/11 12:11:23;;;;;;;13.83;12.93;;;13.20;35.70;;;;;;4991006;28;20429;-57
2022/11/11 12:14:22;;;;;;;12.87;12.07;;;13.30;35.40;;;;;;4980780;28;20469;-58
2022/11/11 12:16:59;;;;;;;13.37;12.37;;;13.40;35.40;;;;;;4981587;28;20434;-58
2022/11/11 12:20:08;;;;;;;14.97;13.97;;;13.40;35.40;;;;;;4975600;28;20860;-58
2022/11/11 12:22:48;;;;;;;15.50;14.30;;;13.40;35.40;;;;;;4952678;28;20523;-58
2022/11/11 12:25:19;;;;;;;14.43;13.37;;;13.30;35.70;;;;;;4971826;28;20846;-57
2022/11/11 12:28:06;;;;;;;16.27;14.80;;;13.40;36.30;;;;;;4971800;28;20430;-59
2022/11/11 12:30:35;;;;;;;16.37;15.13;;;13.50;36.30;;;;;;4971625;28;20438;-58
2022/11/11 12:33:18;;;;;;;15.63;14.57;;;13.60;35.80;;;;;;4960818;28;20473;-58
2022/11/11 12:35:56;;;;;;;17.10;15.80;;;13.60;35.70;;;;;;4972016;28;20436;-58
2022/11/11 12:38:42;;;;;;;14.23;13.50;;;13.60;36.00;;;;;;4978212;28;20987;-58
2022/11/11 12:41:25;;;;;;;15.00;13.83;;;13.60;36.00;;;;;;4990702;28;20852;-58
2022/11/11 12:44:03;;;;;;;16.40;15.20;;;13.60;36.50;;;;;;4991062;28;20459;-58
2022/11/11 12:46:56;;;;;;;16.37;15.17;;;13.50;36.50;;;;;;4991324;28;20429;-58
2022/11/11 12:49:36;;;;;;;14.60;13.60;;;13.60;37.00;;;;;;4990776;28;20429;-58
2022/11/11 12:52:23;;;;;;;15.50;14.30;;;13.70;36.80;;;;;;4987646;28;20988;-58
2022/11/11 12:54:55;;;;;;;14.17;13.43;;;13.70;36.20;;;;;;4971556;28;20434;-57
2022/11/11 12:57:41;;;;;;;15.73;14.60;;;13.80;36.30;;;;;;4971739;28;20418;-57
2022/11/11 13:00:19;;;;;;;15.77;14.33;;;13.90;36.40;;;;;;4970471;28;20914;-57
2022/11/11 13:02:57;;;;;;;15.77;14.97;;;13.90;36.10;;;;;;4971051;28;20898;-57
2022/11/11 13:05:25;;;;;;;16.47;15.27;;;14.00;36.00;;;;;;4971615;28;20887;-58
2022/11/11 13:08:29;;;;;;;15.47;14.53;;;13.90;36.20;;;;;;4971479;28;20911;-58
2022/11/11 13:11:07;;;;;;;16.47;14.97;;;13.90;36.60;;;;;;4930159;29;20443;-58
2022/11/11 13:14:07;;;;;;;15.07;14.27;;;13.90;36.50;;;;;;4914387;29;20857;-58
2022/11/11 13:16:32;;;;;;;15.40;14.30;;;14.00;36.70;;;;;;4950114;28;20433;-58
2022/11/11 13:19:09;;;;;;;15.97;14.87;;;14.00;36.60;;;;;;4970978;28;20513;-58
2022/11/11 13:21:54;;;;;;;14.67;13.90;;;14.10;36.20;;;;;;4983469;28;20184;-58
2022/11/11 13:24:23;;;;;;;15.60;14.63;;;14.10;36.30;;;;;;4990957;28;20587;-58
2022/11/11 13:26:58;;;;;;;16.37;15.20;;;14.10;36.00;;;;;;4990771;28;20515;-58
2022/11/11 13:29:51;;;;;;;15.90;15.00;;;14.10;35.40;;;;;;4990957;28;20420;-58
2022/11/11 13:32:21;;;;;;;14.27;13.50;;;14.20;35.20;;;;;;4990185;28;20468;-58
2022/11/11 13:34:48;;;;;;;15.73;14.70;;;14.20;35.20;;;;;;4990701;28;20841;-58
2022/11/11 13:37:27;;;;;;;14.67;13.30;;;14.20;35.20;;;;;;4994005;28;20471;-59
2022/11/11 13:39:55;;;;;;;17.77;14.10;;;14.30;34.80;;;;;;4993223;28;20784;-58
2022/11/11 13:42:26;;;;;;;13.70;12.87;;;14.30;34.60;;;;;;4993996;28;20440;-58
2022/11/11 13:44:55;;;;;;;14.50;13.17;;;14.30;34.70;;;;;;4994156;28;20471;-58
2022/11/11 13:47:43;;;;;;;14.23;13.27;;;14.30;34.60;;;;;;4993629;28;20425;-58
2022/11/11 13:50:23;;;;;;;13.87;13.20;;;14.30;34.30;;;;;;4993724;28;20422;-59
2022/11/11 13:52:58;;;;;;;15.03;14.20;;;14.30;34.30;;;;;;4985084;28;20493;-59
2022/11/11 13:55:45;;;;;;;14.70;13.90;;;14.30;34.10;;;;;;4974517;28;20840;-58
2022/11/11 13:58:32;;;;;;;13.70;13.00;;;14.30;34.60;;;;;;4974452;28;20429;-58
2022/11/11 14:01:01;;;;;;;14.20;13.40;;;14.40;34.30;;;;;;4953169;29;20419;-58